sensor_id;sensor_type;location;lat;lon;timestamp;pressure;altitude;pressure_sealevel;temperature;humidity
57594;BME280;43423;46.510;6.686;2023-02-19T00:01:40;97403.50;;;9.28;69.71
57594;BME280;43423;46.510;6.686;2023-02-19T00:04:13;97399.53;;;9.29;70.05
57594;BME280;43423;46.510;6.686;2023-02-19T00:06:40;97404.06;;;9.23;69.83
57594;BME280;43423;46.510;6.686;2023-02-19T00:09:06;97397.06;;;8.87;70.97
57594;BME280;43423;46.510;6.686;2023-02-19T00:11:33;97400.53;;;8.66;72.14
57594;BME280;43423;46.510;6.686;2023-02-19T00:14:00;97397.91;;;8.62;72.16
57594;BME280;43423;46.510;6.686;2023-02-19T00:16:34;97397.16;;;8.62;72.85
57594;BME280;43423;46.510;6.686;2023-02-19T00:19:02;97397.91;;;8.62;71.52
57594;BME280;43423;46.510;6.686;2023-02-19T00:21:28;97406.91;;;8.63;71.94
57594;BME280;43423;46.510;6.686;2023-02-19T00:23:58;97397.25;;;8.58;71.32
57594;BME280;43423;46.510;6.686;2023-02-19T00:26:24;97394.78;;;8.38;73.74
57594;BME280;43423;46.510;6.686;2023-02-19T00:28:52;97398.59;;;8.03;75.12
57594;BME280;43423;46.510;6.686;2023-02-19T00:31:21;97394.13;;;8.22;74.54
57594;BME280;43423;46.510;6.686;2023-02-19T00:33:48;97392.69;;;8.30;73.88
57594;BME280;43423;46.510;6.686;2023-02-19T00:36:15;97392.13;;;8.35;73.83
57594;BME280;43423;46.510;6.686;2023-02-19T00:38:42;97391.38;;;8.22;75.54
57594;BME280;43423;46.510;6.686;2023-02-19T00:41:08;97394.13;;;8.09;76.27
57594;BME280;43423;46.510;6.686;2023-02-19T00:44:04;97394.22;;;8.18;75.75
57594;BME280;43423;46.510;6.686;2023-02-19T00:46:35;97391.69;;;8.24;76.08
57594;BME280;43423;46.510;6.686;2023-02-19T00:49:02;97399.38;;;7.91;76.96
57594;BME280;43423;46.510;6.686;2023-02-19T00:51:30;97397.63;;;8.09;76.70
57594;BME280;43423;46.510;6.686;2023-02-19T00:53:56;97394.13;;;8.09;76.62
57594;BME280;43423;46.510;6.686;2023-02-19T00:56:21;97401.13;;;8.10;76.97
57594;BME280;43423;46.510;6.686;2023-02-19T00:58:48;97405.63;;;8.17;76.49
57594;BME280;43423;46.510;6.686;2023-02-19T01:01:13;97399.81;;;8.15;75.81
57594;BME280;43423;46.510;6.686;2023-02-19T01:03:40;97400.00;;;8.20;75.53
57594;BME280;43423;46.510;6.686;2023-02-19T01:06:07;97402.09;;;8.29;74.28
57594;BME280;43423;46.510;6.686;2023-02-19T01:08:34;97395.75;;;8.32;74.00
57594;BME280;43423;46.510;6.686;2023-02-19T01:11:00;97403.97;;;8.32;74.95
57594;BME280;43423;46.510;6.686;2023-02-19T01:13:26;97395.19;;;8.37;74.70
57594;BME280;43423;46.510;6.686;2023-02-19T01:16:06;97396.19;;;8.43;73.40
57594;BME280;43423;46.510;6.686;2023-02-19T01:18:33;97400.13;;;8.42;74.34
57594;BME280;43423;46.510;6.686;2023-02-19T01:20:59;97393.09;;;8.28;75.35
57594;BME280;43423;46.510;6.686;2023-02-19T01:23:24;97394.44;;;8.24;75.50
57594;BME280;43423;46.510;6.686;2023-02-19T01:25:50;97393.31;;;8.21;75.61
57594;BME280;43423;46.510;6.686;2023-02-19T01:28:16;97399.78;;;8.27;74.78
57594;BME280;43423;46.510;6.686;2023-02-19T01:30:41;97399.25;;;8.20;75.71
57594;BME280;43423;46.510;6.686;2023-02-19T01:33:07;97391.69;;;8.11;75.38
57594;BME280;43423;46.510;6.686;2023-02-19T01:35:37;97390.03;;;8.13;74.47
57594;BME280;43423;46.510;6.686;2023-02-19T01:38:03;97381.41;;;8.15;74.83
57594;BME280;43423;46.510;6.686;2023-02-19T01:40:28;97380.88;;;8.07;75.99
57594;BME280;43423;46.510;6.686;2023-02-19T01:42:54;97379.97;;;8.10;75.41
57594;BME280;43423;46.510;6.686;2023-02-19T01:45:21;97375.47;;;8.04;74.85
57594;BME280;43423;46.510;6.686;2023-02-19T01:47:56;97371.13;;;8.06;74.45
57594;BME280;43423;46.510;6.686;2023-02-19T01:50:24;97375.38;;;8.07;75.07
57594;BME280;43423;46.510;6.686;2023-02-19T01:52:52;97377.13;;;8.01;74.92
57594;BME280;43423;46.510;6.686;2023-02-19T01:55:18;97376.81;;;7.99;75.88
57594;BME280;43423;46.510;6.686;2023-02-19T01:57:47;97369.25;;;8.03;74.94
57594;BME280;43423;46.510;6.686;2023-02-19T02:00:15;97371.44;;;8.08;74.95
57594;BME280;43423;46.510;6.686;2023-02-19T02:02:44;97372.63;;;8.20;75.47
57594;BME280;43423;46.510;6.686;2023-02-19T02:07:56;97358.72;;;8.15;75.50
57594;BME280;43423;46.510;6.686;2023-02-19T02:10:41;97358.84;;;7.86;76.14
57594;BME280;43423;46.510;6.686;2023-02-19T02:13:07;97357.75;;;7.83;75.47
57594;BME280;43423;46.510;6.686;2023-02-19T02:18:43;97343.41;;;7.79;75.52
57594;BME280;43423;46.510;6.686;2023-02-19T02:23:55;97343.50;;;7.88;74.20
57594;BME280;43423;46.510;6.686;2023-02-19T02:32:18;97339.34;;;7.83;74.98
57594;BME280;43423;46.510;6.686;2023-02-19T02:34:56;97340.75;;;7.88;74.37
57594;BME280;43423;46.510;6.686;2023-02-19T02:37:24;97343.19;;;7.86;74.78
57594;BME280;43423;46.510;6.686;2023-02-19T02:39:52;97339.56;;;7.89;74.23
57594;BME280;43423;46.510;6.686;2023-02-19T02:42:18;97332.53;;;7.88;74.05
57594;BME280;43423;46.510;6.686;2023-02-19T02:44:55;97323.69;;;7.84;75.05
57594;BME280;43423;46.510;6.686;2023-02-19T02:50:58;97332.75;;;7.81;74.66
57594;BME280;43423;46.510;6.686;2023-02-19T02:53:45;97336.72;;;7.80;74.45
57594;BME280;43423;46.510;6.686;2023-02-19T02:56:32;97332.66;;;7.72;75.12
57594;BME280;43423;46.510;6.686;2023-02-19T02:59:00;97324.88;;;7.70;75.06
57594;BME280;43423;46.510;6.686;2023-02-19T03:01:34;97325.88;;;7.76;74.94
57594;BME280;43423;46.510;6.686;2023-02-19T03:05:19;97337.06;;;7.69;75.28
57594;BME280;43423;46.510;6.686;2023-02-19T03:07:45;97328.31;;;7.74;76.12
57594;BME280;43423;46.510;6.686;2023-02-19T03:10:18;97332.13;;;7.77;76.14
57594;BME280;43423;46.510;6.686;2023-02-19T03:12:45;97323.69;;;7.71;76.29
57594;BME280;43423;46.510;6.686;2023-02-19T03:15:54;97324.00;;;7.73;75.79
57594;BME280;43423;46.510;6.686;2023-02-19T03:18:45;97314.94;;;7.64;76.42
57594;BME280;43423;46.510;6.686;2023-02-19T03:21:33;97324.56;;;7.68;75.30
57594;BME280;43423;46.510;6.686;2023-02-19T03:24:02;97321.84;;;7.68;74.58
57594;BME280;43423;46.510;6.686;2023-02-19T03:26:47;97325.00;;;7.67;75.13
57594;BME280;43423;46.510;6.686;2023-02-19T03:29:22;97325.78;;;7.67;75.00
57594;BME280;43423;46.510;6.686;2023-02-19T03:31:56;97321.59;;;7.63;74.77
57594;BME280;43423;46.510;6.686;2023-02-19T03:34:29;97317.56;;;7.54;75.25
57594;BME280;43423;46.510;6.686;2023-02-19T03:37:01;97308.56;;;7.54;75.15
57594;BME280;43423;46.510;6.686;2023-02-19T03:39:29;97304.53;;;7.59;75.12
57594;BME280;43423;46.510;6.686;2023-02-19T03:41:59;97296.75;;;7.57;74.96
57594;BME280;43423;46.510;6.686;2023-02-19T03:44:45;97299.16;;;7.55;74.99
57594;BME280;43423;46.510;6.686;2023-02-19T03:47:18;97297.50;;;7.57;74.94
57594;BME280;43423;46.510;6.686;2023-02-19T03:49:49;97306.59;;;7.54;75.76
57594;BME280;43423;46.510;6.686;2023-02-19T03:52:41;97308.56;;;7.54;75.37
57594;BME280;43423;46.510;6.686;2023-02-19T03:55:16;97305.06;;;7.53;74.82
57594;BME280;43423;46.510;6.686;2023-02-19T03:57:51;97301.69;;;7.62;75.24
57594;BME280;43423;46.510;6.686;2023-02-19T04:00:37;97304.19;;;7.56;74.60
57594;BME280;43423;46.510;6.686;2023-02-19T04:03:14;97306.81;;;7.47;75.29
57594;BME280;43423;46.510;6.686;2023-02-19T04:05:47;97305.72;;;7.45;76.07
57594;BME280;43423;46.510;6.686;2023-02-19T04:08:18;97302.56;;;7.46;76.35
57594;BME280;43423;46.510;6.686;2023-02-19T04:10:46;97320.06;;;7.49;76.69
57594;BME280;43423;46.510;6.686;2023-02-19T04:13:29;97313.94;;;7.57;79.76
57594;BME280;43423;46.510;6.686;2023-02-19T04:16:00;97318.97;;;7.72;79.18
57594;BME280;43423;46.510;6.686;2023-02-19T04:18:30;97323.91;;;7.77;78.43
57594;BME280;43423;46.510;6.686;2023-02-19T04:20:58;97329.16;;;7.84;76.60
57594;BME280;43423;46.510;6.686;2023-02-19T04:23:26;97330.38;;;7.83;77.01
57594;BME280;43423;46.510;6.686;2023-02-19T04:25:58;97334.97;;;7.86;76.71
57594;BME280;43423;46.510;6.686;2023-02-19T04:28:24;97324.91;;;7.83;76.69
57594;BME280;43423;46.510;6.686;2023-02-19T04:30:50;97334.31;;;7.95;77.04
57594;BME280;43423;46.510;6.686;2023-02-19T04:33:15;97333.09;;;7.96;78.45
57594;BME280;43423;46.510;6.686;2023-02-19T04:35:41;97348.84;;;8.04;78.60
57594;BME280;43423;46.510;6.686;2023-02-19T04:38:06;97354.78;;;8.16;78.00
57594;BME280;43423;46.510;6.686;2023-02-19T04:40:32;97368.34;;;8.19;77.56
57594;BME280;43423;46.510;6.686;2023-02-19T04:42:58;97367.03;;;8.24;77.05
57594;BME280;43423;46.510;6.686;2023-02-19T04:45:23;97376.13;;;8.33;76.70
57594;BME280;43423;46.510;6.686;2023-02-19T04:47:49;97375.91;;;8.28;76.07
57594;BME280;43423;46.510;6.686;2023-02-19T04:50:14;97379.97;;;8.23;76.67
57594;BME280;43423;46.510;6.686;2023-02-19T04:52:40;97374.94;;;8.22;75.63
57594;BME280;43423;46.510;6.686;2023-02-19T04:55:07;97371.63;;;8.27;76.09
57594;BME280;43423;46.510;6.686;2023-02-19T04:57:33;97367.91;;;8.21;76.04
57594;BME280;43423;46.510;6.686;2023-02-19T04:59:59;97388.41;;;8.16;76.02
57594;BME280;43423;46.510;6.686;2023-02-19T05:02:24;97392.47;;;8.11;77.87
57594;BME280;43423;46.510;6.686;2023-02-19T05:04:50;97399.59;;;8.22;76.43
57594;BME280;43423;46.510;6.686;2023-02-19T05:07:15;97385.22;;;8.18;77.09
57594;BME280;43423;46.510;6.686;2023-02-19T05:09:41;97384.78;;;8.19;76.74
57594;BME280;43423;46.510;6.686;2023-02-19T05:12:06;97374.81;;;8.25;77.10
57594;BME280;43423;46.510;6.686;2023-02-19T05:14:32;97358.16;;;8.20;76.65
57594;BME280;43423;46.510;6.686;2023-02-19T05:16:57;97373.19;;;8.02;77.37
57594;BME280;43423;46.510;6.686;2023-02-19T05:19:23;97376.91;;;8.08;77.23
57594;BME280;43423;46.510;6.686;2023-02-19T05:21:48;97365.06;;;8.11;76.85
57594;BME280;43423;46.510;6.686;2023-02-19T05:24:14;97363.44;;;8.01;77.29
57594;BME280;43423;46.510;6.686;2023-02-19T05:26:39;97363.75;;;8.03;76.13
57594;BME280;43423;46.510;6.686;2023-02-19T05:29:05;97358.19;;;7.94;75.29
57594;BME280;43423;46.510;6.686;2023-02-19T05:31:31;97340.66;;;7.92;75.65
57594;BME280;43423;46.510;6.686;2023-02-19T05:33:58;97329.16;;;7.84;75.80
57594;BME280;43423;46.510;6.686;2023-02-19T05:36:24;97321.50;;;7.79;75.65
57594;BME280;43423;46.510;6.686;2023-02-19T05:38:56;97327.94;;;7.72;75.69
57594;BME280;43423;46.510;6.686;2023-02-19T05:41:25;97332.03;;;7.68;75.88
57594;BME280;43423;46.510;6.686;2023-02-19T05:43:51;97324.56;;;7.55;76.32
57594;BME280;43423;46.510;6.686;2023-02-19T05:46:19;97324.34;;;7.63;75.16
57594;BME280;43423;46.510;6.686;2023-02-19T05:48:46;97308.13;;;7.55;76.08
57594;BME280;43423;46.510;6.686;2023-02-19T05:51:14;97297.84;;;7.60;76.08
57594;BME280;43423;46.510;6.686;2023-02-19T05:53:41;97305.72;;;7.57;75.94
57594;BME280;43423;46.510;6.686;2023-02-19T05:56:29;97310.56;;;7.53;76.56
57594;BME280;43423;46.510;6.686;2023-02-19T05:58:57;97316.91;;;7.50;76.09
57594;BME280;43423;46.510;6.686;2023-02-19T06:01:25;97316.03;;;7.53;76.72
57594;BME280;43423;46.510;6.686;2023-02-19T06:03:51;97312.59;;;7.49;77.77
57594;BME280;43423;46.510;6.686;2023-02-19T06:06:19;97310.56;;;7.53;77.11
57594;BME280;43423;46.510;6.686;2023-02-19T06:08:47;97318.63;;;7.57;76.55
57594;BME280;43423;46.510;6.686;2023-02-19T06:11:13;97324.78;;;7.61;77.39
57594;BME280;43423;46.510;6.686;2023-02-19T06:13:39;97318.66;;;7.70;77.36
57594;BME280;43423;46.510;6.686;2023-02-19T06:16:05;97316.22;;;7.72;76.94
57594;BME280;43423;46.510;6.686;2023-02-19T06:18:32;97330.38;;;7.70;77.94
57594;BME280;43423;46.510;6.686;2023-02-19T06:21:04;97346.13;;;7.79;76.93
57594;BME280;43423;46.510;6.686;2023-02-19T06:23:30;97352.16;;;7.74;76.71
57594;BME280;43423;46.510;6.686;2023-02-19T06:26:27;97346.66;;;7.74;77.47
57594;BME280;43423;46.510;6.686;2023-02-19T06:28:53;97339.78;;;7.69;76.97
57594;BME280;43423;46.510;6.686;2023-02-19T06:31:19;97352.72;;;7.69;77.80
57594;BME280;43423;46.510;6.686;2023-02-19T06:33:46;97363.09;;;7.74;76.98
57594;BME280;43423;46.510;6.686;2023-02-19T06:36:16;97375.91;;;7.64;76.80
57594;BME280;43423;46.510;6.686;2023-02-19T06:38:43;97380.63;;;7.64;76.91
57594;BME280;43423;46.510;6.686;2023-02-19T06:41:11;97384.69;;;7.59;77.31
57594;BME280;43423;46.510;6.686;2023-02-19T06:43:37;97395.94;;;7.61;77.59
57594;BME280;43423;46.510;6.686;2023-02-19T06:46:05;97397.34;;;7.53;78.22
57594;BME280;43423;46.510;6.686;2023-02-19T06:48:32;97398.44;;;7.43;78.29
57594;BME280;43423;46.510;6.686;2023-02-19T06:50:58;97398.13;;;7.53;77.68
57594;BME280;43423;46.510;6.686;2023-02-19T06:53:23;97400.22;;;7.62;77.09
57594;BME280;43423;46.510;6.686;2023-02-19T06:56:06;97394.75;;;7.62;77.88
57594;BME280;43423;46.510;6.686;2023-02-19T06:58:33;97386.75;;;7.68;76.04
57594;BME280;43423;46.510;6.686;2023-02-19T07:00:58;97392.44;;;7.73;75.86
57594;BME280;43423;46.510;6.686;2023-02-19T07:03:24;97399.88;;;7.73;75.35
57594;BME280;43423;46.510;6.686;2023-02-19T07:05:51;97398.03;;;7.70;75.17
57594;BME280;43423;46.510;6.686;2023-02-19T07:08:16;97403.19;;;7.68;75.86
57594;BME280;43423;46.510;6.686;2023-02-19T07:10:45;97402.84;;;7.66;75.53
57594;BME280;43423;46.510;6.686;2023-02-19T07:13:18;97405.91;;;7.55;77.44
57594;BME280;43423;46.510;6.686;2023-02-19T07:15:43;97418.38;;;7.56;77.19
57594;BME280;43423;46.510;6.686;2023-02-19T07:18:08;97426.81;;;7.62;77.40
57594;BME280;43423;46.510;6.686;2023-02-19T07:20:34;97418.41;;;7.69;76.08
57594;BME280;43423;46.510;6.686;2023-02-19T07:23:00;97426.22;;;7.83;76.29
57594;BME280;43423;46.510;6.686;2023-02-19T07:25:25;97428.41;;;8.01;77.70
57594;BME280;43423;46.510;6.686;2023-02-19T07:27:51;97430.59;;;8.19;77.27
57594;BME280;43423;46.510;6.686;2023-02-19T07:30:16;97427.31;;;8.36;77.42
57594;BME280;43423;46.510;6.686;2023-02-19T07:32:42;97433.34;;;8.44;76.96
57594;BME280;43423;46.510;6.686;2023-02-19T07:35:09;97430.06;;;8.49;76.71
57594;BME280;43423;46.510;6.686;2023-02-19T07:37:35;97440.66;;;8.60;76.61
57594;BME280;43423;46.510;6.686;2023-02-19T07:40:01;97444.84;;;8.64;76.42
57594;BME280;43423;46.510;6.686;2023-02-19T07:42:26;97448.56;;;8.71;76.24
57594;BME280;43423;46.510;6.686;2023-02-19T07:44:52;97452.59;;;8.79;75.47
57594;BME280;43423;46.510;6.686;2023-02-19T07:47:18;97457.88;;;8.86;75.70
57594;BME280;43423;46.510;6.686;2023-02-19T07:49:43;97457.41;;;8.87;75.94
57594;BME280;43423;46.510;6.686;2023-02-19T07:52:09;97462.66;;;8.94;75.96
57594;BME280;43423;46.510;6.686;2023-02-19T07:54:34;97463.06;;;9.06;76.12
57594;BME280;43423;46.510;6.686;2023-02-19T07:57:00;97465.13;;;9.14;74.86
57594;BME280;43423;46.510;6.686;2023-02-19T07:59:25;97475.13;;;9.08;75.40
57594;BME280;43423;46.510;6.686;2023-02-19T08:01:51;97475.47;;;9.10;73.03
57594;BME280;43423;46.510;6.686;2023-02-19T08:04:34;97474.69;;;9.10;74.08
57594;BME280;43423;46.510;6.686;2023-02-19T08:07:00;97470.50;;;8.71;73.59
57594;BME280;43423;46.510;6.686;2023-02-19T08:09:26;97475.44;;;8.50;74.42
57594;BME280;43423;46.510;6.686;2023-02-19T08:11:51;97479.47;;;8.33;75.48
57594;BME280;43423;46.510;6.686;2023-02-19T08:14:35;97487.47;;;8.27;75.94
57594;BME280;43423;46.510;6.686;2023-02-19T08:17:01;97488.25;;;8.15;76.11
57594;BME280;43423;46.510;6.686;2023-02-19T08:19:27;97482.97;;;8.21;75.45
57594;BME280;43423;46.510;6.686;2023-02-19T08:21:53;97495.13;;;8.20;74.16
57594;BME280;43423;46.510;6.686;2023-02-19T08:24:18;97492.69;;;8.38;75.79
57594;BME280;43423;46.510;6.686;2023-02-19T08:26:44;97494.41;;;8.57;75.22
57594;BME280;43423;46.510;6.686;2023-02-19T08:29:09;97485.38;;;8.95;73.81
57594;BME280;43423;46.510;6.686;2023-02-19T08:31:35;97491.72;;;8.92;71.90
57594;BME280;43423;46.510;6.686;2023-02-19T08:34:01;97491.63;;;8.95;72.47
57594;BME280;43423;46.510;6.686;2023-02-19T08:36:27;97491.16;;;9.10;71.46
57594;BME280;43423;46.510;6.686;2023-02-19T08:38:52;97487.06;;;9.14;71.01
57594;BME280;43423;46.510;6.686;2023-02-19T08:41:18;97485.22;;;9.11;70.61
57594;BME280;43423;46.510;6.686;2023-02-19T08:43:43;97483.00;;;9.19;70.01
57594;BME280;43423;46.510;6.686;2023-02-19T08:46:10;97482.31;;;9.28;69.51
57594;BME280;43423;46.510;6.686;2023-02-19T08:48:37;97489.47;;;9.47;69.50
57594;BME280;43423;46.510;6.686;2023-02-19T08:51:05;97493.31;;;9.93;69.33
57594;BME280;43423;46.510;6.686;2023-02-19T08:53:33;97492.16;;;10.34;67.80
57594;BME280;43423;46.510;6.686;2023-02-19T08:56:09;97492.47;;;10.68;66.91
57594;BME280;43423;46.510;6.686;2023-02-19T08:58:35;97488.56;;;10.47;65.70
57594;BME280;43423;46.510;6.686;2023-02-19T09:01:05;97489.75;;;10.37;65.11
57594;BME280;43423;46.510;6.686;2023-02-19T09:03:31;97488.44;;;10.19;66.23
57594;BME280;43423;46.510;6.686;2023-02-19T09:05:57;97496.56;;;10.23;65.65
57594;BME280;43423;46.510;6.686;2023-02-19T09:08:22;97489.47;;;10.44;65.16
57594;BME280;43423;46.510;6.686;2023-02-19T09:11:02;97494.97;;;10.84;64.21
57594;BME280;43423;46.510;6.686;2023-02-19T09:13:29;97499.38;;;10.81;63.02
57594;BME280;43423;46.510;6.686;2023-02-19T09:15:55;97496.53;;;11.03;63.83
57594;BME280;43423;46.510;6.686;2023-02-19T09:18:21;97505.25;;;11.29;61.49
57594;BME280;43423;46.510;6.686;2023-02-19T09:20:47;97499.00;;;11.19;61.20
57594;BME280;43423;46.510;6.686;2023-02-19T09:23:12;97458.38;;;10.74;61.71
57594;BME280;43423;46.510;6.686;2023-02-19T09:25:38;97495.38;;;10.73;62.33
57594;BME280;43423;46.510;6.686;2023-02-19T09:28:03;97506.84;;;10.72;62.80
57594;BME280;43423;46.510;6.686;2023-02-19T09:30:29;97503.00;;;10.69;62.89
57594;BME280;43423;46.510;6.686;2023-02-19T09:32:54;97495.88;;;10.41;63.54
57594;BME280;43423;46.510;6.686;2023-02-19T09:35:20;97507.13;;;10.33;63.74
57594;BME280;43423;46.510;6.686;2023-02-19T09:37:45;97502.28;;;10.38;64.16
57594;BME280;43423;46.510;6.686;2023-02-19T09:40:11;97501.25;;;10.44;64.34
57594;BME280;43423;46.510;6.686;2023-02-19T09:42:39;97501.59;;;10.55;62.61
57594;BME280;43423;46.510;6.686;2023-02-19T09:45:06;97507.84;;;10.56;62.30
57594;BME280;43423;46.510;6.686;2023-02-19T09:47:32;97502.81;;;10.54;61.68
57594;BME280;43423;46.510;6.686;2023-02-19T09:50:04;97504.50;;;10.52;61.04
57594;BME280;43423;46.510;6.686;2023-02-19T09:52:50;97504.50;;;10.61;61.59
57594;BME280;43423;46.510;6.686;2023-02-19T09:57:43;97494.78;;;10.78;60.41
57594;BME280;43423;46.510;6.686;2023-02-19T10:02:44;97504.31;;;11.05;59.03
57594;BME280;43423;46.510;6.686;2023-02-19T10:05:12;97508.03;;;11.38;59.10
57594;BME280;43423;46.510;6.686;2023-02-19T10:07:42;97503.16;;;11.70;58.49
57594;BME280;43423;46.510;6.686;2023-02-19T10:12:39;97510.94;;;11.53;59.41
57594;BME280;43423;46.510;6.686;2023-02-19T10:17:43;97511.41;;;11.61;59.58
57594;BME280;43423;46.510;6.686;2023-02-19T10:20:14;97503.16;;;11.70;59.28
57594;BME280;43423;46.510;6.686;2023-02-19T10:22:42;97506.94;;;12.00;60.03
57594;BME280;43423;46.510;6.686;2023-02-19T10:25:13;97515.16;;;12.27;59.19
57594;BME280;43423;46.510;6.686;2023-02-19T10:27:39;97511.09;;;12.05;59.63
57594;BME280;43423;46.510;6.686;2023-02-19T10:30:06;97514.19;;;12.49;60.23
57594;BME280;43423;46.510;6.686;2023-02-19T10:32:34;97514.53;;;12.42;59.26
57594;BME280;43423;46.510;6.686;2023-02-19T10:35:15;97501.25;;;12.13;59.30
57594;BME280;43423;46.510;6.686;2023-02-19T10:37:43;97513.34;;;12.67;58.58
57594;BME280;43423;46.510;6.686;2023-02-19T10:40:28;97508.34;;;12.47;58.27
57594;BME280;43423;46.510;6.686;2023-02-19T10:42:59;97509.91;;;12.81;58.87
57594;BME280;43423;46.510;6.686;2023-02-19T10:45:46;97504.53;;;12.44;58.22
57594;BME280;43423;46.510;6.686;2023-02-19T10:48:30;97506.41;;;12.38;59.34
57594;BME280;43423;46.510;6.686;2023-02-19T10:51:08;97507.16;;;12.39;59.12
57594;BME280;43423;46.510;6.686;2023-02-19T10:53:46;97507.25;;;12.53;58.83
57594;BME280;43423;46.510;6.686;2023-02-19T10:56:15;97513.72;;;12.50;59.13
57594;BME280;43423;46.510;6.686;2023-02-19T10:58:46;97510.81;;;12.78;57.52
57594;BME280;43423;46.510;6.686;2023-02-19T11:01:23;97513.47;;;13.05;57.91
57594;BME280;43423;46.510;6.686;2023-02-19T11:04:13;97513.28;;;13.33;56.50
57594;BME280;43423;46.510;6.686;2023-02-19T11:06:38;97508.25;;;13.31;57.30
57594;BME280;43423;46.510;6.686;2023-02-19T11:09:04;97498.56;;;13.51;56.93
57594;BME280;43423;46.510;6.686;2023-02-19T11:11:36;97497.81;;;13.50;55.59
57594;BME280;43423;46.510;6.686;2023-02-19T11:14:04;97500.94;;;13.82;56.45
57594;BME280;43423;46.510;6.686;2023-02-19T11:19:56;97492.56;;;14.20;52.93
57594;BME280;43423;46.510;6.686;2023-02-19T11:22:36;97490.47;;;14.30;52.04
57594;BME280;43423;46.510;6.686;2023-02-19T11:30:42;97470.41;;;14.65;50.69
57594;BME280;43423;46.510;6.686;2023-02-19T11:35:47;97471.13;;;14.15;50.88
57594;BME280;43423;46.510;6.686;2023-02-19T11:38:15;97469.00;;;14.10;51.51
57594;BME280;43423;46.510;6.686;2023-02-19T11:43:58;97460.59;;;14.34;53.29
57594;BME280;43423;46.510;6.686;2023-02-19T11:52:27;97452.94;;;14.44;50.85
57594;BME280;43423;46.510;6.686;2023-02-19T11:55:05;97446.50;;;14.47;50.83
57594;BME280;43423;46.510;6.686;2023-02-19T11:57:54;97430.25;;;14.55;49.74
57594;BME280;43423;46.510;6.686;2023-02-19T12:00:26;97436.34;;;14.29;53.16
57594;BME280;43423;46.510;6.686;2023-02-19T12:09:15;97426.84;;;14.30;52.48
57594;BME280;43423;46.510;6.686;2023-02-19T12:20:17;97407.91;;;14.43;52.98
57594;BME280;43423;46.510;6.686;2023-02-19T12:25:43;97397.06;;;14.95;52.58
57594;BME280;43423;46.510;6.686;2023-02-19T12:39:18;97403.09;;;14.23;53.12
57594;BME280;43423;46.510;6.686;2023-02-19T12:42:14;97398.53;;;14.06;53.52
57594;BME280;43423;46.510;6.686;2023-02-19T12:44:54;97397.75;;;14.05;53.48
57594;BME280;43423;46.510;6.686;2023-02-19T12:47:24;97399.28;;;14.71;51.91
57594;BME280;43423;46.510;6.686;2023-02-19T12:49:57;97399.91;;;14.80;50.95
57594;BME280;43423;46.510;6.686;2023-02-19T12:52:31;97388.69;;;14.90;50.37
57594;BME280;43423;46.510;6.686;2023-02-19T12:55:18;97388.81;;;14.80;50.04
57594;BME280;43423;46.510;6.686;2023-02-19T12:57:45;97395.19;;;15.07;49.75
57594;BME280;43423;46.510;6.686;2023-02-19T13:03:10;97387.53;;;15.43;48.62
57594;BME280;43423;46.510;6.686;2023-02-19T13:10:56;97374.41;;;15.95;46.93
57594;BME280;43423;46.510;6.686;2023-02-19T13:13:29;97373.69;;;15.69;48.79
57594;BME280;43423;46.510;6.686;2023-02-19T13:16:01;97371.41;;;15.99;47.83
57594;BME280;43423;46.510;6.686;2023-02-19T13:18:33;97382.31;;;15.76;47.77
57594;BME280;43423;46.510;6.686;2023-02-19T13:21:00;97373.19;;;15.70;47.10
57594;BME280;43423;46.510;6.686;2023-02-19T13:23:35;97369.34;;;15.94;46.19
57594;BME280;43423;46.510;6.686;2023-02-19T13:26:59;97363.50;;;15.60;46.99
57594;BME280;43423;46.510;6.686;2023-02-19T13:38:01;97359.69;;;15.83;49.19
57594;BME280;43423;46.510;6.686;2023-02-19T13:40:36;97361.09;;;15.47;49.20
57594;BME280;43423;46.510;6.686;2023-02-19T13:43:28;97369.88;;;15.66;48.99
57594;BME280;43423;46.510;6.686;2023-02-19T13:45:59;97356.53;;;15.70;48.90
57594;BME280;43423;46.510;6.686;2023-02-19T13:48:33;97363.59;;;16.03;48.28
57594;BME280;43423;46.510;6.686;2023-02-19T14:04:23;97349.75;;;16.03;47.62
57594;BME280;43423;46.510;6.686;2023-02-19T14:12:20;97355.28;;;16.03;46.84
57594;BME280;43423;46.510;6.686;2023-02-19T14:14:51;97362.84;;;15.97;46.60
57594;BME280;43423;46.510;6.686;2023-02-19T14:19:59;97350.00;;;16.42;46.57
57594;BME280;43423;46.510;6.686;2023-02-19T14:28:08;97334.97;;;16.60;46.03
57594;BME280;43423;46.510;6.686;2023-02-19T14:30:58;97322.28;;;16.47;45.93
57594;BME280;43423;46.510;6.686;2023-02-19T14:33:33;97316.84;;;16.27;46.87
57594;BME280;43423;46.510;6.686;2023-02-19T14:36:26;97311.28;;;15.84;47.14
57594;BME280;43423;46.510;6.686;2023-02-19T14:38:56;97310.16;;;15.65;47.75
57594;BME280;43423;46.510;6.686;2023-02-19T14:41:24;97314.88;;;15.33;47.82
57594;BME280;43423;46.510;6.686;2023-02-19T14:43:53;97316.09;;;15.06;48.68
57594;BME280;43423;46.510;6.686;2023-02-19T14:46:31;97315.66;;;14.87;49.33
57594;BME280;43423;46.510;6.686;2023-02-19T14:49:06;97313.03;;;14.58;50.42
57594;BME280;43423;46.510;6.686;2023-02-19T14:51:36;97308.44;;;14.34;50.71
57594;BME280;43423;46.510;6.686;2023-02-19T14:54:21;97299.59;;;14.30;51.63
57594;BME280;43423;46.510;6.686;2023-02-19T14:56:54;97299.63;;;14.15;52.04
57594;BME280;43423;46.510;6.686;2023-02-19T14:59:24;97319.81;;;14.21;52.19
57594;BME280;43423;46.510;6.686;2023-02-19T15:02:00;97320.66;;;14.28;52.44
57594;BME280;43423;46.510;6.686;2023-02-19T15:04:34;97328.28;;;14.33;51.98
57594;BME280;43423;46.510;6.686;2023-02-19T15:07:05;97330.66;;;14.40;52.44
57594;BME280;43423;46.510;6.686;2023-02-19T15:09:36;97335.06;;;14.32;52.17
57594;BME280;43423;46.510;6.686;2023-02-19T15:12:04;97333.47;;;14.25;52.04
57594;BME280;43423;46.510;6.686;2023-02-19T15:14:30;97331.38;;;14.20;52.22
57594;BME280;43423;46.510;6.686;2023-02-19T15:17:00;97320.78;;;14.18;52.08
57594;BME280;43423;46.510;6.686;2023-02-19T15:19:28;97329.34;;;14.20;52.23
57594;BME280;43423;46.510;6.686;2023-02-19T15:21:56;97327.69;;;14.08;52.01
57594;BME280;43423;46.510;6.686;2023-02-19T15:24:22;97325.47;;;14.12;51.61
57594;BME280;43423;46.510;6.686;2023-02-19T15:26:50;97321.19;;;14.11;51.86